Ana Sayfa
METAR-TAF:

METAR-TAF

Havaalanları :

Mehrabad Havalimanı

Tahran, İran

Enlem: 35-41N, Boylam: 051-21E, yükseklik: 1204 m

Güncel hava durumu gözlemi

Rapor saat 21:00 UTC de 52 dakika önce yapıldı.
Rüzgar doğudan 12 kt
Sıcaklık 23°C
Nem 38%
Basınç 1021 hPa
Görüş mesafesi 10 km veya daha fazla
3500 ft yükseklikte az bulutlu, Kümülonimbus.
4000 ft yükseklikte parçalı bulutlu
10000 ft yükseklikte parçalı çok bulutlu

METAR: OIII 202100Z 09012KT 9999 FEW035CB SCT040 BKN100 23/08 Q1020 A3014 RETS

Saat: 02:22 (21:52 UTC)

Tahmin

Rapor saat 17:30 UTC de 4 saat ve 22 dakika önce yapıldı.
Ayın 20'si saat 18 UTC'den ayın 21'si saat 24 UTC'ye kadar geçerli Tahmin
Rüzgar güneydoğudan 6 kt
Görüş mesafesi: 8000 m
4000 ft yükseklikte az bulutlu, Kümülonimbus.
10000 ft yükseklikte parçalı bulutlu
Dönüşüyor
ayın 20'si saat 19 UTC'den ayın 20'si saat 21 UTC'ye kadar
Görüş mesafesi: 8000 m

TAF: OIII 201730Z 2018/2124 13003MPS 8000 FEW040CB SCT100 BECMG 2019/2021 8000 NSC

4.000'den fazla havaalanı için hava durumu gözlemleri ve tahminleri (METAR ve TAF raporları).

Kullanılabilir istasyonlar harita üzerinde sarı ve kırmızı noktalarla gösterilir.

İstasyonun adını görmek için fareyi noktanın üzerinde gezdirin.

Sonrasında hava gözlem ve tahminlerini görmek için tıklayın.

Haritayı değiştirmek için: yaklaştırmak için siyah artı işaretli yeşil düğmeye ve uzaklaştırmak için de eksi işaretli düğmeye hızla tıklayın; bitişik haritalar için yeşil okları kullanın.


METAR-TAF: